Time;durP1;ratioP1;P1;durP2;ratioP2;P2;SDS_P1;SDS_P2;PMS_P1;PMS_P2;Temp;Humidity;BMP_temperature;BMP_pressure;BME280_temperature;BME280_humidity;BME280_pressure;Samples;Min_cycle;Max_cycle;Signal;HPM_P1;HPM_P2
2022/09/30 00:01:21;;;;;;;11.95;5.28;;;;;;;15.47;96.81;96576.50;5043154;28;20061;-61
2022/09/30 00:03:48;;;;;;;8.43;4.85;;;;;;;15.39;97.30;96575.78;5044436;28;20739;-61
2022/09/30 00:06:15;;;;;;;6.53;5.05;;;;;;;15.33;97.17;96577.41;5044234;28;20527;-61
2022/09/30 00:08:42;;;;;;;6.75;5.07;;;;;;;15.03;98.04;96541.00;5043500;28;20183;-61
2022/09/30 00:11:17;;;;;;;9.00;5.43;;;;;;;15.24;98.80;96595.81;5044683;28;20152;-60
2022/09/30 00:13:47;;;;;;;8.07;5.13;;;;;;;15.16;99.61;96595.06;5044434;28;20052;-61
2022/09/30 00:16:15;;;;;;;12.05;5.45;;;;;;;15.12;100.00;96602.69;5043385;28;20143;-61
2022/09/30 00:18:43;;;;;;;8.07;5.60;;;;;;;14.95;99.66;96550.63;5043306;28;20049;-61
2022/09/30 00:21:12;;;;;;;8.80;5.78;;;;;;;15.25;98.81;96587.03;5044590;28;20509;-62
2022/09/30 00:23:39;;;;;;;7.68;5.53;;;;;;;15.26;98.56;96587.81;5043310;28;20077;-63
2022/09/30 00:26:11;;;;;;;11.48;5.95;;;;;;;15.12;97.79;96600.69;5043293;28;20057;-62
2022/09/30 00:28:38;;;;;;;6.75;5.07;;;;;;;14.90;98.51;96567.78;5044602;28;20424;-61
2022/09/30 00:31:08;;;;;;;8.93;5.35;;;;;;;15.07;99.28;96597.53;5044147;28;20084;-62
2022/09/30 00:33:35;;;;;;;8.95;5.68;;;;;;;15.00;99.14;96597.59;5044668;28;20143;-64
2022/09/30 00:36:03;;;;;;;9.68;5.25;;;;;;;14.98;99.86;96606.34;5043056;28;20723;-62
2022/09/30 00:38:30;;;;;;;8.00;5.88;;;;;;;14.86;100.00;96606.03;5044669;28;20112;-62
2022/09/30 00:40:58;;;;;;;7.20;5.22;;;;;;;14.95;100.00;96618.34;5044623;28;20557;-62
2022/09/30 00:43:50;;;;;;;9.77;5.90;;;;;;;14.91;100.00;96612.00;5044616;28;20497;-62
2022/09/30 00:46:38;;;;;;;6.20;5.53;;;;;;;14.80;100.00;96600.13;5042861;28;20088;-63
2022/09/30 00:49:23;;;;;;;6.78;5.65;;;;;;;14.95;100.00;96609.19;5043420;28;20056;-63
2022/09/30 00:51:55;;;;;;;6.10;5.50;;;;;;;14.89;100.00;96605.25;5044712;28;20049;-61
2022/09/30 00:54:27;;;;;;;6.28;5.68;;;;;;;14.73;100.00;96574.28;5044584;28;20053;-62
2022/09/30 00:57:02;;;;;;;8.87;5.87;;;;;;;14.36;100.00;96568.53;5044086;28;20499;-61
2022/09/30 00:59:33;;;;;;;8.30;6.10;;;;;;;14.76;100.00;96606.94;5042725;28;20159;-61
2022/09/30 01:02:00;;;;;;;7.20;6.00;;;;;;;14.31;100.00;96522.38;5047339;28;20045;-61
2022/09/30 01:04:31;;;;;;;7.05;6.20;;;;;;;14.93;100.00;96626.34;5048079;28;20076;-62
2022/09/30 01:07:04;;;;;;;5.78;5.18;;;;;;;14.60;100.00;96562.03;5046678;28;20067;-61
2022/09/30 01:09:33;;;;;;;8.20;5.60;;;;;;;14.99;100.00;96629.47;5048110;28;20172;-62
2022/09/30 01:12:14;;;;;;;7.32;5.50;;;;;;;12.55;100.00;96265.59;5046662;28;20057;-62
2022/09/30 01:14:42;;;;;;;8.05;5.65;;;;;;;14.77;100.00;96633.59;5046457;28;20584;-61
2022/09/30 01:17:18;;;;;;;7.57;5.78;;;;;;;14.80;100.00;96639.16;5047739;28;20136;-61
2022/09/30 01:20:06;;;;;;;7.28;6.15;;;;;;;14.56;100.00;96640.09;5047583;28;20049;-62
2022/09/30 01:23:03;;;;;;;7.20;5.07;;;;;;;14.54;100.00;96636.13;5046609;28;20150;-61
2022/09/30 01:25:57;;;;;;;8.40;5.78;;;;;;;14.64;100.00;96640.84;5047686;28;20076;-62
2022/09/30 01:28:46;;;;;;;10.48;5.65;;;;;;;14.53;100.00;96634.50;5046353;28;20147;-62
2022/09/30 01:31:12;;;;;;;7.45;5.00;;;;;;;14.50;100.00;96635.34;5046029;28;20080;-61
2022/09/30 01:33:52;;;;;;;6.07;5.25;;;;;;;14.51;100.00;96637.72;5047691;28;20056;-62
2022/09/30 01:36:27;;;;;;;6.20;5.60;;;;;;;14.46;100.00;96640.16;5047168;28;20132;-63
2022/09/30 01:39:20;;;;;;;8.02;4.93;;;;;;;14.49;100.00;96644.91;5047776;28;20083;-61
2022/09/30 01:41:53;;;;;;;5.82;5.22;;;;;;;14.53;100.00;96646.47;5047438;28;20538;-61
2022/09/30 01:44:32;;;;;;;8.93;5.70;;;;;;;14.52;100.00;96652.44;5047593;28;20060;-62
2022/09/30 01:47:10;;;;;;;7.75;5.50;;;;;;;14.56;100.00;96644.84;5045613;28;20342;-61
2022/09/30 01:49:42;;;;;;;11.45;7.15;;;;;;;14.07;100.00;96576.19;5045611;28;20054;-62
2022/09/30 01:52:23;;;;;;;8.35;6.95;;;;;;;14.56;100.00;96650.44;5047095;28;20045;-63
2022/09/30 01:55:08;;;;;;;8.15;7.15;;;;;;;14.53;100.00;96657.63;5047200;28;20128;-61
2022/09/30 01:57:39;;;;;;;8.38;6.45;;;;;;;14.41;100.00;96654.50;5047154;28;20091;-61
2022/09/30 02:00:09;;;;;;;9.18;5.90;;;;;;;14.27;100.00;96643.41;5045314;28;20136;-61
2022/09/30 02:02:47;;;;;;;8.82;6.20;;;;;;;14.30;100.00;96648.16;5046819;28;20057;-62
2022/09/30 02:05:27;;;;;;;9.20;6.38;;;;;;;14.30;100.00;96648.16;5046413;28;20061;-61
2022/09/30 02:07:59;;;;;;;8.77;6.30;;;;;;;14.21;100.00;96645.00;5046782;28;20099;-62
2022/09/30 02:10:43;;;;;;;9.02;6.32;;;;;;;14.27;100.00;96654.56;5045354;28;20621;-61
2022/09/30 02:13:13;;;;;;;;;;;;;;;14.32;100.00;96651.34;5046738;28;20144;-62
2022/09/30 02:15:45;;;;;;;8.75;5.93;;;;;;;14.26;100.00;96652.94;5046428;28;20103;-61
2022/09/30 02:18:18;;;;;;;6.97;6.10;;;;;;;14.07;100.00;96619.97;5045305;28;20485;-62
2022/09/30 02:20:50;;;;;;;8.15;5.60;;;;;;;13.93;100.00;96601.31;5044878;28;20331;-62
2022/09/30 02:23:25;;;;;;;9.82;5.95;;;;;;;14.28;100.00;96656.13;5046683;28;20277;-62
2022/09/30 02:26:05;;;;;;;7.80;6.22;;;;;;;14.21;100.00;96650.56;5046241;28;20583;-61
2022/09/30 02:28:38;;;;;;;9.40;6.32;;;;;;;14.24;100.00;96660.91;5044948;28;20061;-61
2022/09/30 02:31:07;;;;;;;8.93;5.85;;;;;;;14.30;100.00;96659.31;5046367;28;20132;-61
2022/09/30 02:33:40;;;;;;;6.28;5.60;;;;;;;13.96;100.00;96605.31;5046366;28;20083;-62
2022/09/30 02:36:20;;;;;;;5.80;5.15;;;;;;;14.36;100.00;96657.69;5046137;28;20143;-62
2022/09/30 02:38:54;;;;;;;15.30;6.45;;;;;;;14.25;100.00;96651.38;5046431;28;20077;-61
2022/09/30 02:41:25;;;;;;;6.35;5.35;;;;;;;14.23;100.00;96664.88;5044952;28;20085;-60
2022/09/30 02:43:56;;;;;;;8.85;6.28;;;;;;;14.19;100.00;96647.38;5045144;28;20139;-62
2022/09/30 02:46:35;;;;;;;8.95;6.10;;;;;;;14.30;100.00;96670.47;5046343;28;20144;-62
2022/09/30 02:49:11;;;;;;;11.63;5.95;;;;;;;14.29;100.00;96658.50;5046306;28;20091;-62
2022/09/30 02:52:03;;;;;;;7.91;6.61;;;;;;;14.25;100.00;96668.09;5025076;28;5001467;-61
2022/09/30 02:54:33;;;;;;;9.45;7.53;;;;;;;14.18;100.00;96657.72;4678975;28;10000427;-61
2022/09/30 02:58:03;;;;;;;10.68;8.95;;;;;;;14.32;100.00;96679.22;5025492;28;20049;-61
2022/09/30 03:00:30;;;;;;;8.13;6.78;;;;;;;14.18;100.00;96679.22;5002924;28;20104;-61
2022/09/30 03:03:04;;;;;;;7.32;6.55;;;;;;;14.14;100.00;96678.44;5002913;28;20086;-62
2022/09/30 03:05:31;;;;;;;8.50;6.88;;;;;;;13.35;100.00;96615.75;4985115;28;20592;-61
2022/09/30 03:07:57;;;;;;;10.82;6.93;;;;;;;13.99;100.00;96682.47;4986599;28;20165;-61
2022/09/30 03:10:24;;;;;;;9.85;8.35;;;;;;;13.59;100.00;96614.91;4985897;28;20112;-61
2022/09/30 03:13:04;;;;;;;8.55;6.38;;;;;;;13.93;100.00;96664.56;4986401;28;20148;-62
2022/09/30 03:16:05;;;;;;;6.57;5.78;;;;;;;14.04;100.00;96690.38;4985868;28;20137;-62
2022/09/30 03:18:47;;;;;;;8.20;5.75;;;;;;;13.93;100.00;96695.19;4984942;28;20449;-62
2022/09/30 03:21:42;;;;;;;6.55;5.65;;;;;;;13.77;100.00;96697.63;4985863;28;20089;-61
2022/09/30 03:24:14;;;;;;;8.82;5.55;;;;;;;13.63;100.00;96688.06;4986505;28;20110;-62
2022/09/30 03:27:10;;;;;;;8.23;6.23;;;;;;;13.62;100.00;96686.47;4986072;28;20508;-62
2022/09/30 03:30:04;;;;;;;6.97;6.03;;;;;;;13.67;100.00;96694.41;4980570;28;20333;-61
2022/09/30 03:32:51;;;;;;;8.52;6.32;;;;;;;13.75;100.00;96686.06;4986439;28;20433;-62
2022/09/30 03:35:29;;;;;;;11.40;6.72;;;;;;;13.72;100.00;96689.66;4984557;28;20089;-62
2022/09/30 03:38:50;;;;;;;11.43;5.97;;;;;;;13.57;100.00;96694.44;4984726;28;20462;-63
2022/09/30 03:41:40;;;;;;;8.38;6.32;;;;;;;13.54;100.00;96684.91;4983239;28;20136;-61
2022/09/30 03:44:25;;;;;;;12.85;6.38;;;;;;;13.50;100.00;96683.28;4985407;28;20070;-61
2022/09/30 03:46:58;;;;;;;21.08;12.95;;;;;;;13.49;100.00;96682.50;4984096;28;20133;-61
2022/09/30 03:49:38;;;;;;;7.30;6.00;;;;;;;13.40;100.00;96673.75;4985858;28;20062;-61
2022/09/30 03:52:08;;;;;;;11.63;6.88;;;;;;;13.60;100.00;96683.31;4986038;28;20081;-61
2022/09/30 03:54:53;;;;;;;18.02;13.98;;;;;;;13.32;100.00;96647.16;4985448;28;20509;-62
2022/09/30 03:57:20;;;;;;;16.75;11.77;;;;;;;12.72;100.00;96582.34;4985459;28;20161;-60
2022/09/30 03:59:46;;;;;;;12.52;7.45;;;;;;;13.41;100.00;96703.19;4985661;28;20156;-61
2022/09/30 04:02:13;;;;;;;10.23;7.60;;;;;;;13.30;100.00;96702.38;4985596;28;20117;-61
2022/09/30 04:04:40;;;;;;;11.05;7.65;;;;;;;13.22;100.00;96695.22;5011045;28;20714;-60
2022/09/30 04:07:09;;;;;;;7.72;6.95;;;;;;;13.20;100.00;96691.22;5024778;28;20065;-61
2022/09/30 04:09:39;;;;;;;11.63;6.32;;;;;;;12.81;100.00;96652.22;5024692;28;20053;-61
2022/09/30 04:12:07;;;;;;;9.75;7.07;;;;;;;13.09;100.00;96685.66;5024589;28;20054;-60
2022/09/30 04:14:34;;;;;;;16.02;8.48;;;;;;;11.29;100.00;96410.63;5024850;28;20053;-61
2022/09/30 04:17:02;;;;;;;10.02;7.32;;;;;;;13.15;100.00;96711.09;5024572;28;20052;-61
2022/09/30 04:19:29;;;;;;;8.43;7.25;;;;;;;13.33;100.00;96711.91;5024493;28;20136;-61
2022/09/30 04:21:56;;;;;;;8.80;6.90;;;;;;;13.39;100.00;96711.13;5023270;28;20084;-60
2022/09/30 04:24:23;;;;;;;10.38;7.63;;;;;;;13.51;100.00;96709.94;5022986;28;20107;-63
2022/09/30 04:26:50;;;;;;;11.25;7.00;;;;;;;13.03;100.00;96625.28;5024404;28;20133;-61
2022/09/30 04:29:17;;;;;;;8.98;7.70;;;;;;;13.51;100.00;96702.38;5024488;28;20406;-63
2022/09/30 04:31:43;;;;;;;14.57;7.88;;;;;;;13.60;100.00;96711.13;5024737;28;20049;-61
2022/09/30 04:34:10;;;;;;;8.95;6.47;;;;;;;13.29;100.00;96672.97;5025113;28;20050;-60
2022/09/30 04:36:37;;;;;;;11.27;7.40;;;;;;;11.73;100.00;96414.75;5026411;28;20058;-61
2022/09/30 04:39:04;;;;;;;11.00;8.23;;;;;;;13.70;100.00;96729.81;5028999;28;20049;-61
2022/09/30 04:41:32;;;;;;;11.82;7.75;;;;;;;13.79;100.00;96734.19;5028449;28;20053;-61
2022/09/30 04:44:04;;;;;;;10.88;7.47;;;;;;;13.91;100.00;96754.06;5028779;28;20050;-60
2022/09/30 04:46:35;;;;;;;16.30;8.07;;;;;;;14.01;100.00;96747.69;5042953;28;20053;-60
2022/09/30 04:49:04;;;;;;;12.88;8.10;;;;;;;14.10;100.00;96755.66;5008229;28;20079;-62
2022/09/30 04:51:35;;;;;;;37.83;9.05;;;;;;;14.08;100.00;96730.19;5007480;28;20060;-61
2022/09/30 04:54:02;;;;;;;16.75;7.72;;;;;;;14.35;100.00;96745.28;5009053;28;20144;-61
2022/09/30 04:56:29;;;;;;;15.35;7.20;;;;;;;13.93;100.00;96670.13;5007235;28;20049;-61
2022/09/30 04:58:56;;;;;;;13.73;8.15;;;;;;;14.53;100.00;96746.81;5027676;28;20107;-61
2022/09/30 05:01:22;;;;;;;12.60;7.05;;;;;;;14.69;100.00;96760.28;5026876;28;20053;-61
2022/09/30 05:03:49;;;;;;;22.45;9.90;;;;;;;14.52;100.00;96761.97;5042908;28;20519;-60
2022/09/30 05:06:16;;;;;;;19.30;8.98;;;;;;;14.69;99.04;96751.94;5028362;28;20266;-60
2022/09/30 05:08:43;;;;;;;24.65;10.88;;;;;;;14.70;99.25;96745.19;5027904;28;20594;-61
2022/09/30 05:11:17;;;;;;;12.23;7.25;;;;;;;14.87;98.25;96755.47;5026859;28;20096;-62
2022/09/30 05:13:45;;;;;;;8.02;5.80;;;;;;;15.03;97.45;96759.34;5028282;28;20088;-63
2022/09/30 05:16:13;;;;;;;8.68;6.00;;;;;;;14.90;95.44;96737.91;5027660;28;20119;-61
2022/09/30 05:18:44;;;;;;;8.60;6.68;;;;;;;14.89;96.15;96753.84;5027570;28;20054;-62
2022/09/30 05:21:13;;;;;;;6.93;6.22;;;;;;;15.05;96.08;96770.91;5027899;28;20049;-61
2022/09/30 05:23:40;;;;;;;10.73;6.13;;;;;;;14.86;96.22;96720.38;5027955;28;20053;-61
2022/09/30 05:26:06;;;;;;;10.50;6.60;;;;;;;14.97;95.74;96701.59;5017829;28;20103;-61
2022/09/30 05:28:38;;;;;;;12.18;7.07;;;;;;;15.42;94.96;96769.53;5047611;28;20060;-62
2022/09/30 05:31:05;;;;;;;8.00;6.13;;;;;;;15.71;93.87;96796.84;5047443;28;20092;-61
2022/09/30 05:33:33;;;;;;;10.00;5.72;;;;;;;15.32;93.26;96743.25;5046085;28;20577;-60
2022/09/30 05:36:02;;;;;;;8.27;5.72;;;;;;;15.83;93.14;96813.13;5045430;28;20092;-60
2022/09/30 05:38:29;;;;;;;7.57;5.70;;;;;;;15.16;93.35;96678.75;5042259;28;20045;-63
2022/09/30 05:40:56;;;;;;;9.60;5.40;;;;;;;16.10;92.07;96777.78;5033428;28;20111;-61
2022/09/30 05:43:23;;;;;;;7.10;5.65;;;;;;;15.49;91.77;96692.09;5038467;28;20052;-62
2022/09/30 05:45:56;;;;;;;8.18;5.68;;;;;;;15.82;91.75;96722.16;5026674;28;20088;-63
2022/09/30 05:48:24;;;;;;;;;;;;;;;16.44;91.05;96781.47;5024632;28;20065;-62
2022/09/30 05:50:56;;;;;;;6.25;5.65;;;;;;;16.63;89.47;96778.09;5026880;28;19925;-63
2022/09/30 05:53:23;;;;;;;8.85;5.88;;;;;;;16.51;87.52;96735.88;5040129;28;20057;-65
2022/09/30 05:55:50;;;;;;;7.93;5.72;;;;;;;16.84;86.86;96759.47;5045020;28;20139;-63
2022/09/30 05:58:18;;;;;;;10.13;6.40;;;;;;;16.00;85.90;96616.63;5047031;28;20527;-69
2022/09/30 06:00:46;;;;;;;12.65;6.70;;;;;;;17.14;85.59;96774.28;5046267;28;20520;-65
2022/09/30 06:03:14;;;;;;;11.73;7.43;;;;;;;17.50;84.13;96797.00;5046415;28;20084;-71
2022/09/30 06:05:41;;;;;;;8.32;7.35;;;;;;;17.24;83.76;96722.97;5046047;28;20107;-63
2022/09/30 06:08:09;;;;;;;10.13;7.53;;;;;;;17.86;82.94;96787.66;5044731;28;20467;-64
2022/09/30 06:10:38;;;;;;;14.02;7.68;;;;;;;17.79;82.20;96761.78;5041069;28;20143;-62
2022/09/30 06:13:06;;;;;;;10.77;7.45;;;;;;;17.88;82.48;96790.03;5032015;28;20130;-62
2022/09/30 06:15:32;;;;;;;18.98;6.45;;;;;;;18.12;82.33;96794.47;5046141;28;20049;-59
2022/09/30 06:17:59;;;;;;;9.43;7.13;;;;;;;17.14;81.44;96625.13;5045909;28;20049;-66
2022/09/30 06:20:26;;;;;;;12.45;7.15;;;;;;;17.99;81.18;96752.22;5044378;28;20088;-62
2022/09/30 06:22:53;;;;;;;13.93;6.72;;;;;;;17.77;79.81;96671.75;5046116;28;20092;-63
2022/09/30 06:25:21;;;;;;;10.70;7.63;;;;;;;18.02;78.83;96694.50;5045730;28;20072;-63
2022/09/30 06:27:47;;;;;;;11.05;7.03;;;;;;;18.87;78.27;96798.38;5045835;28;20136;-66
2022/09/30 06:30:14;;;;;;;14.27;6.78;;;;;;;16.34;78.25;96444.09;5044377;28;20059;-67
2022/09/30 06:32:41;;;;;;;15.52;7.22;;;;;;;18.89;78.49;96761.44;5045963;28;20118;-66
2022/09/30 06:35:09;;;;;;;8.77;6.57;;;;;;;18.28;78.09;96656.41;5045491;28;20052;-67
2022/09/30 06:37:36;;;;;;;9.63;5.97;;;;;;;19.46;76.45;96807.59;5043901;28;20126;-69
2022/09/30 06:40:04;;;;;;;6.97;6.22;;;;;;;17.64;74.76;96492.28;5045520;28;20098;-68
2022/09/30 06:42:31;;;;;;;8.88;5.53;;;;;;;19.41;74.98;96756.75;5044590;28;20084;-66
2022/09/30 06:44:58;;;;;;;8.25;5.60;;;;;;;19.94;72.86;96828.59;5044448;28;20084;-68
2022/09/30 06:47:25;;;;;;;10.25;5.80;;;;;;;19.95;72.92;96824.59;5052830;28;20103;-60
2022/09/30 06:49:57;;;;;;;7.10;6.40;;;;;;;19.48;71.32;96757.38;5025905;28;20136;-63
2022/09/30 06:52:25;;;;;;;11.35;6.90;;;;;;;19.75;72.36;96826.63;5025457;28;20103;-64
2022/09/30 06:54:55;;;;;;;6.93;5.85;;;;;;;18.84;73.93;96745.88;5025270;28;20092;-65
2022/09/30 06:57:26;;;;;;;7.60;6.05;;;;;;;19.61;72.54;96804.47;5025544;28;20137;-63
2022/09/30 06:59:55;;;;;;;10.88;6.50;;;;;;;20.12;70.88;96820.56;5043833;28;20067;-62
2022/09/30 07:02:22;;;;;;;8.27;6.38;;;;;;;20.36;69.99;96824.81;5043479;28;20084;-66
2022/09/30 07:04:49;;;;;;;6.80;6.18;;;;;;;20.13;69.37;96775.13;5044961;28;20063;-66
2022/09/30 07:07:15;;;;;;;9.73;5.47;;;;;;;20.77;68.10;96825.75;5045475;28;20589;-62
2022/09/30 07:09:42;;;;;;;8.85;6.40;;;;;;;20.95;67.60;96830.91;5043432;28;20128;-60
2022/09/30 07:12:09;;;;;;;7.30;6.60;;;;;;;20.77;65.69;96791.19;5024764;28;20522;-63
2022/09/30 07:14:36;;;;;;;7.53;6.82;;;;;;;20.62;65.58;96789.97;5040093;28;20181;-67
2022/09/30 07:17:04;;;;;;;9.93;6.50;;;;;;;20.43;65.61;96766.34;5024928;28;20409;-64
2022/09/30 07:19:33;;;;;;;7.32;6.55;;;;;;;20.90;65.90;96857.56;5025113;28;20131;-58
2022/09/30 07:22:26;;;;;;;7.43;6.75;;;;;;;20.47;65.72;96743.75;5024458;28;20161;-59
2022/09/30 07:24:47;;;;;;;19.80;7.45;;;;;;;20.48;65.21;96719.97;5036192;28;20336;-68
2022/09/30 07:27:14;;;;;;;9.95;7.05;;;;;;;20.58;64.78;96718.91;5045039;28;20060;-68
2022/09/30 07:29:42;;;;;;;8.02;6.50;;;;;;;21.57;64.12;96841.66;5044633;28;20110;-66
2022/09/30 07:32:29;;;;;;;7.78;6.57;;;;;;;21.34;64.28;96853.16;5040951;28;20106;-61
2022/09/30 07:34:56;;;;;;;8.88;6.85;;;;;;;20.63;64.09;96736.03;5024935;28;20053;-61
2022/09/30 07:37:25;;;;;;;7.25;6.00;;;;;;;21.79;63.26;96853.91;5024845;28;20479;-68
2022/09/30 07:39:52;;;;;;;7.75;6.90;;;;;;;21.91;62.59;96850.31;5024401;28;20135;-62
2022/09/30 07:42:20;;;;;;;8.05;7.15;;;;;;;21.90;61.91;96823.34;5023107;28;20103;-67
2022/09/30 07:44:50;;;;;;;47.83;32.65;;;;;;;22.25;62.00;96844.00;5024456;28;20057;-67
2022/09/30 07:47:18;;;;;;;9.23;6.82;;;;;;;22.09;61.10;96830.81;5031478;28;20084;-65
2022/09/30 07:49:45;;;;;;;8.57;6.68;;;;;;;21.87;61.04;96727.56;5044322;28;20083;-62
2022/09/30 07:52:12;;;;;;;7.25;6.55;;;;;;;22.81;60.53;96841.38;5044387;28;20052;-63
2022/09/30 07:54:40;;;;;;;9.13;6.72;;;;;;;23.04;59.27;96844.59;5044163;28;20490;-63
2022/09/30 07:57:13;;;;;;;6.78;5.97;;;;;;;22.49;58.69;96752.84;5044334;28;20049;-62
2022/09/30 07:59:41;;;;;;;8.05;6.80;;;;;;;22.66;58.63;96769.66;5043871;28;20053;-67
2022/09/30 08:02:15;;;;;;;7.22;6.63;;;;;;;21.68;58.44;96590.38;5043872;28;20057;-66
2022/09/30 08:04:42;;;;;;;7.47;6.45;;;;;;;23.62;56.94;96839.25;5030780;28;20057;-68
2022/09/30 08:07:12;;;;;;;8.32;6.03;;;;;;;23.03;57.67;96842.22;5044127;28;20135;-62
2022/09/30 08:09:38;;;;;;;7.65;7.00;;;;;;;23.37;56.92;96845.03;5042753;28;20092;-60
2022/09/30 08:12:05;;;;;;;12.27;8.40;;;;;;;23.44;57.49;96842.72;5043728;28;20060;-60
2022/09/30 08:14:32;;;;;;;9.10;6.68;;;;;;;23.43;57.39;96843.19;5043949;28;20107;-61
2022/09/30 08:16:59;;;;;;;7.63;6.38;;;;;;;23.27;57.16;96834.91;5042556;28;20412;-60
2022/09/30 08:19:28;;;;;;;6.80;6.20;;;;;;;23.42;56.20;96864.25;5044032;28;20044;-61
2022/09/30 08:21:55;;;;;;;9.38;6.43;;;;;;;23.52;55.85;96834.81;5043725;28;20136;-60
2022/09/30 08:24:23;;;;;;;6.53;5.93;;;;;;;24.03;55.71;96855.88;5043941;28;20102;-60
2022/09/30 08:26:51;;;;;;;7.85;5.88;;;;;;;24.30;54.96;96850.38;5044209;28;20049;-62
2022/09/30 08:29:18;;;;;;;7.28;6.22;;;;;;;24.60;54.28;96858.03;5043776;28;20110;-64
2022/09/30 08:32:04;;;;;;;6.80;6.15;;;;;;;24.77;52.93;96856.53;5032581;28;20052;-62
2022/09/30 08:34:34;;;;;;;6.65;6.07;;;;;;;24.75;51.72;96839.22;5039001;28;20053;-63
2022/09/30 08:37:02;;;;;;;7.93;6.20;;;;;;;24.90;51.08;96853.56;5043656;28;20049;-60
2022/09/30 08:39:34;;;;;;;7.30;6.57;;;;;;;24.54;51.01;96802.47;5042849;28;20457;-63
2022/09/30 08:42:10;;;;;;;6.93;6.32;;;;;;;25.10;51.34;96854.69;5045025;28;20049;-63
2022/09/30 08:45:39;;;;;;;7.30;6.40;;;;;;;25.34;51.19;96919.38;5043003;28;20049;-59
2022/09/30 08:48:18;;;;;;;7.03;6.32;;;;;;;25.49;50.22;96855.06;5040021;28;20440;-65
2022/09/30 08:50:55;;;;;;;7.47;6.82;;;;;;;25.31;49.37;96839.59;5033191;28;20578;-61
2022/09/30 08:53:29;;;;;;;6.90;6.10;;;;;;;24.89;49.42;96745.09;5033142;28;20044;-70
2022/09/30 08:56:01;;;;;;;8.95;7.25;;;;;;;25.53;48.64;96827.34;5044074;28;20076;-61
2022/09/30 08:58:32;;;;;;;8.90;6.82;;;;;;;25.69;49.11;96861.06;5043714;28;20572;-62
2022/09/30 09:01:25;;;;;;;7.40;6.30;;;;;;;25.55;49.24;96864.50;5043652;28;20053;-63
2022/09/30 09:03:52;;;;;;;7.40;6.80;;;;;;;25.43;49.46;96868.31;5043610;28;20057;-63
2022/09/30 09:06:26;;;;;;;8.10;7.30;;;;;;;25.26;49.64;96814.69;5042198;28;20053;-63
2022/09/30 09:09:08;;;;;;;7.57;6.57;;;;;;;25.61;49.29;96856.97;5042201;28;20132;-62
2022/09/30 09:12:13;;;;;;;12.50;10.87;;;;;;;25.75;49.55;96864.84;5042988;28;20055;-63
2022/09/30 09:15:13;;;;;;;7.10;6.47;;;;;;;25.84;48.78;96862.78;5020286;28;20064;-64
2022/09/30 09:17:58;;;;;;;7.30;6.63;;;;;;;25.52;48.82;96854.91;5043381;28;20483;-63
2022/09/30 09:21:08;;;;;;;6.32;5.55;;;;;;;25.44;49.04;96841.50;5043384;28;20055;-62
2022/09/30 09:23:35;;;;;;;6.63;6.00;;;;;;;25.60;48.37;96818.50;5047055;28;20045;-62
2022/09/30 09:26:04;;;;;;;7.55;6.22;;;;;;;26.13;47.91;96848.06;5046064;28;20143;-63
2022/09/30 09:28:39;;;;;;;10.05;7.18;;;;;;;25.89;47.26;96838.63;5046019;28;20488;-61
2022/09/30 09:31:13;;;;;;;7.05;6.53;;;;;;;26.41;47.03;96846.69;5055424;28;20044;-64
2022/09/30 09:33:40;;;;;;;7.00;6.40;;;;;;;26.39;46.82;96803.78;5065975;28;20368;-62
2022/09/30 09:36:31;;;;;;;6.30;5.90;;;;;;;26.88;45.23;96849.66;5067138;28;20052;-63
2022/09/30 09:39:09;;;;;;;6.20;5.63;;;;;;;26.92;44.75;96858.78;5066830;28;20514;-61
2022/09/30 09:41:48;;;;;;;7.72;6.97;;;;;;;27.01;45.05;96866.47;5065291;28;20135;-63
2022/09/30 09:44:31;;;;;;;8.13;7.28;;;;;;;27.19;44.25;96861.44;5067344;28;20485;-61
2022/09/30 09:47:12;;;;;;;7.47;6.82;;;;;;;27.20;45.02;96857.34;5066831;28;20590;-61
2022/09/30 09:49:42;;;;;;;8.18;6.97;;;;;;;27.26;43.97;96866.81;5065329;28;20060;-61
2022/09/30 09:52:12;;;;;;;7.05;6.40;;;;;;;27.53;44.22;96863.75;5066760;28;20088;-62
2022/09/30 09:54:42;;;;;;;7.13;6.43;;;;;;;27.65;43.18;96853.34;5066602;28;20080;-61
2022/09/30 09:57:15;;;;;;;7.38;6.75;;;;;;;27.82;42.27;96841.00;5066630;28;20059;-62
2022/09/30 10:01:09;;;;;;;7.32;6.70;;;;;;;27.79;40.79;96835.53;5050464;28;20107;-63
2022/09/30 10:03:23;;;;;;;6.90;6.10;;;;;;;27.79;40.80;96836.31;5039387;28;20045;-62
2022/09/30 10:06:03;;;;;;;7.75;5.90;;;;;;;27.87;41.32;96837.50;5039869;28;20463;-61
2022/09/30 10:08:32;;;;;;;6.28;5.78;;;;;;;28.05;40.14;96837.34;5045472;28;20069;-62
2022/09/30 10:11:02;;;;;;;5.80;5.40;;;;;;;28.07;39.95;96851.09;5046652;28;20148;-62
2022/09/30 10:13:41;;;;;;;8.02;6.85;;;;;;;27.71;39.71;96809.50;5046853;28;20140;-62
2022/09/30 10:16:24;;;;;;;10.55;5.93;;;;;;;27.79;40.15;96836.31;5046647;28;20061;-62
2022/09/30 10:18:51;;;;;;;7.57;6.80;;;;;;;27.83;40.46;96814.13;5046399;28;20511;-62
2022/09/30 10:21:23;;;;;;;7.97;7.32;;;;;;;28.11;40.30;96837.41;5046642;28;20163;-62
2022/09/30 10:23:50;;;;;;;6.40;5.95;;;;;;;28.28;40.09;96837.72;5046734;28;20129;-64
2022/09/30 10:26:23;;;;;;;8.40;6.43;;;;;;;28.07;40.66;96829.06;5046483;28;20057;-64
2022/09/30 10:28:52;;;;;;;;;;;;;;;28.16;40.58;96831.03;5046942;28;20447;-64
2022/09/30 10:31:36;;;;;;;6.18;5.60;;;;;;;28.17;40.36;96837.53;5046040;28;20403;-63
2022/09/30 10:34:35;;;;;;;6.70;6.20;;;;;;;28.33;40.53;96826.41;5045982;28;20720;-63
2022/09/30 10:37:08;;;;;;;6.82;5.93;;;;;;;28.50;39.66;96838.13;5044382;28;20144;-62
2022/09/30 10:39:37;;;;;;;6.43;6.00;;;;;;;28.29;39.73;96827.88;5045885;28;20103;-64
2022/09/30 10:42:07;;;;;;;6.90;6.28;;;;;;;27.98;40.24;96840.56;5045664;28;20598;-64
2022/09/30 10:44:56;;;;;;;8.73;6.53;;;;;;;27.67;40.81;96839.44;5045903;28;20076;-62
2022/09/30 10:47:25;;;;;;;6.90;6.30;;;;;;;27.20;41.33;96782.59;5045866;28;20114;-62
2022/09/30 10:50:16;;;;;;;6.63;6.22;;;;;;;27.48;41.27;96810.34;5045785;28;20102;-62
2022/09/30 10:52:57;;;;;;;6.30;5.82;;;;;;;27.69;41.23;96826.28;5045736;28;20059;-62
2022/09/30 10:55:23;;;;;;;5.60;5.28;;;;;;;27.71;39.80;96823.72;5045914;28;20124;-62
2022/09/30 10:57:52;;;;;;;5.55;5.25;;;;;;;27.85;39.25;96831.50;5045558;28;20064;-62
2022/09/30 11:00:22;;;;;;;5.82;5.28;;;;;;;28.10;38.69;96827.31;5044606;28;20080;-63
2022/09/30 11:03:17;;;;;;;6.15;5.65;;;;;;;28.19;38.40;96830.06;5045187;28;20053;-62
2022/09/30 11:05:48;;;;;;;6.97;6.45;;;;;;;28.30;38.25;96829.44;5045176;28;21279;-61
2022/09/30 11:08:26;;;;;;;6.25;5.85;;;;;;;28.35;37.94;96826.69;5044052;28;20087;-62
2022/09/30 11:11:13;;;;;;;5.50;5.18;;;;;;;28.36;36.96;96833.19;5045290;28;20512;-61
2022/09/30 11:13:49;;;;;;;6.10;5.60;;;;;;;28.47;36.03;96821.97;5044182;28;20053;-63
2022/09/30 11:16:33;;;;;;;6.50;5.85;;;;;;;28.35;37.78;96823.06;5045262;28;20087;-63
2022/09/30 11:19:06;;;;;;;5.75;5.13;;;;;;;28.27;34.94;96819.03;5045212;28;20083;-63
2022/09/30 11:21:48;;;;;;;6.78;5.63;;;;;;;28.27;36.09;96807.63;5043945;28;20238;-61
2022/09/30 11:24:36;;;;;;;5.63;5.32;;;;;;;28.35;36.70;96823.06;5044741;28;20076;-62
2022/09/30 11:27:37;;;;;;;5.63;5.32;;;;;;;28.23;36.48;96824.16;5044917;28;20140;-63
2022/09/30 11:30:16;;;;;;;6.20;5.63;;;;;;;28.22;36.94;96816.91;5041863;28;20596;-61
2022/09/30 11:33:08;;;;;;;5.75;5.35;;;;;;;28.36;36.69;96827.50;5043364;28;20080;-61
2022/09/30 11:36:04;;;;;;;7.47;6.22;;;;;;;28.22;37.21;96823.38;5044779;28;20136;-61
2022/09/30 11:38:50;;;;;;;6.00;5.47;;;;;;;28.30;36.71;96829.44;5043442;28;20546;-61
2022/09/30 11:41:23;;;;;;;6.43;5.85;;;;;;;28.44;37.34;96829.44;5045282;28;20060;-61
2022/09/30 11:44:04;;;;;;;6.47;5.88;;;;;;;28.56;36.16;96836.13;5045213;28;20153;-62
2022/09/30 11:47:08;;;;;;;6.07;5.68;;;;;;;28.65;36.43;96830.31;5042490;28;20528;-62
2022/09/30 11:49:50;;;;;;;6.13;5.63;;;;;;;28.66;35.85;96823.34;5043563;28;20083;-63
2022/09/30 11:53:04;;;;;;;5.78;5.28;;;;;;;28.62;36.81;96828.44;5044730;28;20077;-62
2022/09/30 11:55:44;;;;;;;6.63;6.13;;;;;;;28.50;36.71;96821.78;5042275;28;20159;-61
2022/09/30 11:58:19;;;;;;;6.20;5.80;;;;;;;28.47;37.04;96821.97;5043504;28;20063;-61
2022/09/30 12:01:27;;;;;;;5.80;5.50;;;;;;;28.55;36.82;96817.47;5043047;28;20048;-65
2022/09/30 12:04:18;;;;;;;5.95;5.43;;;;;;;28.38;36.80;96787.88;5044170;28;20060;-62